createdAt,value
2019-04-26T00:01:02.276Z,60.44
2019-04-26T00:03:36.924Z,60.25
2019-04-26T00:06:08.976Z,60.24
2019-04-26T00:08:38.366Z,60.41
2019-04-26T00:11:25.135Z,60.64
2019-04-26T00:14:14.158Z,60.80
2019-04-26T00:16:49.102Z,61.21
2019-04-26T00:19:19.137Z,61.40
2019-04-26T00:21:48.412Z,61.54
2019-04-26T00:24:17.664Z,61.74
2019-04-26T00:26:46.629Z,61.65
2019-04-26T00:29:15.565Z,61.73
2019-04-26T00:31:44.428Z,61.61
2019-04-26T00:34:13.595Z,60.58
2019-04-26T00:36:42.498Z,60.19
2019-04-26T00:39:11.697Z,60.71
2019-04-26T00:41:42.075Z,61.03
2019-04-26T00:44:10.920Z,61.01
2019-04-26T00:46:41.259Z,61.35
2019-04-26T00:49:13.824Z,61.39
2019-04-26T00:51:43.266Z,61.35
2019-04-26T00:54:14.079Z,61.94
2019-04-26T00:56:43.244Z,62.37
2019-04-26T00:59:12.143Z,62.31
2019-04-26T01:01:45.018Z,61.98
2019-04-26T01:04:14.557Z,61.91
2019-04-26T01:06:46.010Z,61.93
2019-04-26T01:09:16.483Z,62.10
2019-04-26T01:11:46.374Z,62.54
2019-04-26T01:14:15.544Z,62.87
2019-04-26T01:16:45.455Z,62.93
2019-04-26T01:19:15.958Z,62.84
2019-04-26T01:21:50.624Z,63.16
2019-04-26T01:24:21.071Z,62.94
2019-04-26T01:26:50.771Z,62.61
2019-04-26T01:29:20.260Z,62.10
2019-04-26T01:31:55.004Z,61.75
2019-04-26T01:34:24.248Z,61.74
2019-04-26T01:36:54.015Z,61.40
2019-04-26T01:39:24.216Z,61.04
2019-04-26T01:42:04.397Z,61.31
2019-04-26T01:44:58.270Z,61.31
2019-04-26T01:47:28.432Z,61.34
2019-04-26T01:49:57.485Z,60.44
2019-04-26T01:52:26.362Z,60.26
2019-04-26T01:54:55.283Z,60.29
2019-04-26T01:57:25.945Z,60.29
2019-04-26T01:59:57.563Z,59.34
2019-04-26T02:02:53.747Z,59.56
2019-04-26T02:05:24.565Z,59.84
2019-04-26T02:07:53.557Z,59.13
2019-04-26T02:10:25.113Z,59.30
2019-04-26T02:12:54.912Z,60.32
2019-04-26T02:15:27.216Z,60.44
2019-04-26T02:17:56.987Z,60.46
2019-04-26T02:21:11.970Z,61.33
2019-04-26T02:23:50.404Z,60.77
2019-04-26T02:26:32.636Z,61.27
2019-04-26T02:29:03.849Z,61.78
2019-04-26T02:31:33.691Z,62.06
2019-04-26T02:34:04.715Z,61.83
2019-04-26T02:36:55.191Z,62.03
2019-04-26T02:39:16.187Z,62.51
2019-04-26T02:41:45.683Z,62.75
2019-04-26T02:44:14.723Z,62.74
2019-04-26T02:46:50.576Z,63.43
2019-04-26T02:49:41.329Z,63.18
2019-04-26T02:52:32.993Z,63.30
2019-04-26T02:55:17.870Z,63.55
2019-04-26T02:57:52.517Z,63.77
2019-04-26T03:00:21.352Z,64.11
2019-04-26T03:02:57.376Z,64.57
2019-04-26T03:05:28.486Z,64.79
2019-04-26T03:08:03.197Z,64.21
2019-04-26T03:10:36.827Z,64.31
2019-04-26T03:13:09.870Z,64.14
2019-04-26T03:16:00.484Z,64.10
2019-04-26T03:18:49.040Z,64.84
2019-04-26T03:21:31.967Z,65.14
2019-04-26T03:24:13.059Z,64.75
2019-04-26T03:27:23.986Z,65.43
2019-04-26T03:30:22.840Z,65.56
2019-04-26T03:33:00.111Z,65.24
2019-04-26T03:36:10.112Z,65.63
2019-04-26T03:39:08.391Z,65.44
2019-04-26T03:42:12.860Z,65.59
2019-04-26T03:44:55.105Z,65.38
2019-04-26T03:47:30.237Z,65.76
2019-04-26T03:50:14.634Z,65.98
2019-04-26T03:53:23.526Z,66.11
2019-04-26T03:56:36.473Z,66.35
2019-04-26T03:59:21.266Z,66.53
2019-04-26T04:02:05.587Z,66.68
2019-04-26T04:04:45.376Z,66.89
2019-04-26T04:07:16.779Z,67.01
2019-04-26T04:09:50.369Z,67.23
2019-04-26T04:12:24.422Z,67.36
2019-04-26T04:15:00.157Z,67.43
2019-04-26T04:17:45.399Z,67.77
2019-04-26T04:21:09.285Z,67.73
2019-04-26T04:23:55.378Z,67.73
2019-04-26T04:26:46.788Z,67.47
2019-04-26T04:29:50.422Z,67.87
2019-04-26T04:32:22.556Z,67.72
2019-04-26T04:34:53.510Z,67.60
2019-04-26T04:37:24.532Z,67.59
2019-04-26T04:40:12.757Z,67.99
2019-04-26T04:42:55.428Z,67.67
2019-04-26T04:46:01.306Z,67.69
2019-04-26T04:49:16.248Z,67.46
2019-04-26T04:52:08.484Z,67.55
2019-04-26T04:54:42.662Z,67.46
2019-04-26T04:57:48.543Z,68.00
2019-04-26T05:00:56.874Z,68.16
2019-04-26T05:03:44.083Z,68.09
2019-04-26T05:07:12.393Z,67.91
2019-04-26T05:09:52.390Z,68.26
2019-04-26T05:12:30.309Z,68.31
2019-04-26T05:15:50.812Z,68.23
2019-04-26T05:19:25.684Z,68.70
2019-04-26T05:22:03.117Z,69.00
2019-04-26T05:24:49.955Z,68.96
2019-04-26T05:27:44.242Z,68.79
2019-04-26T05:31:02.630Z,68.54
2019-04-26T05:34:13.003Z,68.24
2019-04-26T05:37:10.461Z,68.46
2019-04-26T05:39:57.445Z,68.18
2019-04-26T05:43:07.666Z,67.36
2019-04-26T05:46:22.232Z,67.51
2019-04-26T05:49:56.554Z,67.15
2019-04-26T05:53:01.877Z,66.56
2019-04-26T05:56:12.966Z,65.35
2019-04-26T05:59:04.505Z,64.87
2019-04-26T06:02:19.108Z,64.04
2019-04-26T06:05:10.073Z,63.15
2019-04-26T06:08:31.314Z,60.11
2019-04-26T06:11:08.499Z,57.84
2019-04-26T06:14:15.150Z,54.15
2019-04-26T06:17:17.417Z,51.50
2019-04-26T06:20:22.871Z,47.55
2019-04-26T06:23:05.178Z,43.79
2019-04-26T06:25:57.604Z,40.62
2019-04-26T06:28:40.581Z,39.37
2019-04-26T06:31:35.332Z,37.70
2019-04-26T06:34:20.079Z,38.30
2019-04-26T06:37:02.597Z,36.08
2019-04-26T06:40:06.133Z,35.83
2019-04-26T06:42:50.907Z,34.57
2019-04-26T06:46:11.547Z,34.19
2019-04-26T06:49:33.868Z,34.00
2019-04-26T06:52:08.567Z,33.99
2019-04-26T06:55:02.295Z,33.18
2019-04-26T06:58:13.094Z,33.13
2019-04-26T07:01:05.330Z,32.52
2019-04-26T07:04:15.846Z,30.73
2019-04-26T07:07:23.870Z,29.51
2019-04-26T07:10:39.507Z,28.97
2019-04-26T07:13:35.062Z,29.85
2019-04-26T07:16:34.643Z,29.63
2019-04-26T07:19:20.411Z,29.50
2019-04-26T07:22:37.401Z,28.22
2019-04-26T07:26:07.965Z,28.69
2019-04-26T07:28:56.448Z,29.63
2019-04-26T07:31:44.431Z,29.77
2019-04-26T07:34:25.955Z,31.33
2019-04-26T07:37:45.910Z,32.68
2019-04-26T07:41:20.983Z,35.08
2019-04-26T07:44:20.371Z,36.35
2019-04-26T07:47:44.708Z,38.84
2019-04-26T07:50:40.807Z,40.76
2019-04-26T07:53:39.555Z,41.63
2019-04-26T07:56:54.248Z,42.22
2019-04-26T08:00:04.206Z,42.67
2019-04-26T08:02:54.528Z,43.83
2019-04-26T08:05:36.866Z,43.88
2019-04-26T08:08:08.617Z,42.62
2019-04-26T08:10:39.964Z,42.20
2019-04-26T08:13:13.109Z,42.07
2019-04-26T08:15:54.762Z,42.53
2019-04-26T08:18:29.857Z,41.48
2019-04-26T08:21:10.014Z,41.57
2019-04-26T08:23:43.683Z,40.23
2019-04-26T08:26:15.501Z,41.28
2019-04-26T08:28:45.030Z,42.31
2019-04-26T08:31:21.168Z,39.80
2019-04-26T08:33:54.456Z,41.06
2019-04-26T08:36:27.178Z,40.38
2019-04-26T08:38:55.126Z,39.80
2019-04-26T08:41:24.091Z,37.77
2019-04-26T08:44:11.593Z,38.33
2019-04-26T08:47:06.028Z,39.13
2019-04-26T08:49:56.664Z,38.19
2019-04-26T08:52:29.556Z,38.23
2019-04-26T08:54:59.383Z,38.45
2019-04-26T08:57:31.119Z,39.89
2019-04-26T09:00:04.038Z,39.78
2019-04-26T09:02:56.330Z,41.12
2019-04-26T09:05:55.039Z,40.40
2019-04-26T09:08:26.203Z,40.21
2019-04-26T09:10:56.606Z,41.04
2019-04-26T09:13:26.618Z,41.10
2019-04-26T09:16:10.874Z,42.18
2019-04-26T09:18:43.680Z,40.55
2019-04-26T09:21:13.238Z,40.96
2019-04-26T09:24:08.178Z,40.82
2019-04-26T09:26:46.637Z,41.62
2019-04-26T09:29:22.160Z,40.78
2019-04-26T09:31:54.478Z,41.15
2019-04-26T09:34:24.071Z,42.35
2019-04-26T09:36:53.057Z,41.80
2019-04-26T09:39:22.445Z,44.00
2019-04-26T09:41:52.553Z,43.51
2019-04-26T09:44:52.406Z,42.64
2019-04-26T09:47:30.762Z,42.74
2019-04-26T09:50:11.341Z,42.61
2019-04-26T09:52:46.894Z,42.06
2019-04-26T09:55:17.021Z,43.56
2019-04-26T09:57:45.937Z,43.47
2019-04-26T10:00:18.226Z,43.05
2019-04-26T10:02:47.342Z,43.32
2019-04-26T10:05:17.610Z,43.50
2019-04-26T10:07:46.895Z,42.51
2019-04-26T10:10:22.831Z,42.00
2019-04-26T10:13:00.215Z,41.55
2019-04-26T10:15:48.204Z,41.69
2019-04-26T10:18:20.409Z,40.90
2019-04-26T10:20:50.609Z,43.04
2019-04-26T10:23:19.446Z,42.51
2019-04-26T10:25:51.981Z,42.43
2019-04-26T10:28:19.066Z,42.72
2019-04-26T10:30:48.136Z,43.19
2019-04-26T10:33:17.258Z,43.77
2019-04-26T10:35:46.156Z,42.01
2019-04-26T10:38:19.389Z,42.25
2019-04-26T10:40:48.811Z,42.94
2019-04-26T10:43:17.973Z,44.52
2019-04-26T10:45:53.640Z,43.81
2019-04-26T10:48:17.655Z,46.51
2019-04-26T10:50:46.559Z,45.44
2019-04-26T10:53:30.095Z,45.22
2019-04-26T10:56:25.817Z,44.27
2019-04-26T10:59:32.006Z,46.05
2019-04-26T11:02:01.195Z,44.49
2019-04-26T11:04:30.172Z,43.82
2019-04-26T11:07:01.970Z,43.71
2019-04-26T11:09:29.564Z,44.38
2019-04-26T11:11:58.473Z,44.01
2019-04-26T11:14:27.452Z,45.38
2019-04-26T11:16:59.151Z,43.95
2019-04-26T11:19:28.104Z,45.99
2019-04-26T11:21:56.928Z,45.60
2019-04-26T11:24:25.751Z,46.62
2019-04-26T11:26:54.552Z,45.91
2019-04-26T11:29:25.007Z,46.67
2019-04-26T11:31:54.201Z,46.98
2019-04-26T11:34:24.998Z,47.37
2019-04-26T11:36:53.864Z,48.03
2019-04-26T11:39:22.857Z,47.68
2019-04-26T11:41:51.821Z,47.30
2019-04-26T11:44:23.392Z,48.03
2019-04-26T11:46:51.634Z,47.46
2019-04-26T11:49:20.522Z,47.62
2019-04-26T11:51:49.459Z,47.54
2019-04-26T11:54:20.766Z,47.77
2019-04-26T11:56:50.438Z,47.66
2019-04-26T11:59:19.315Z,48.67
2019-04-26T12:01:48.139Z,48.28
2019-04-26T12:04:35.015Z,48.78
2019-04-26T12:07:32.269Z,49.53
2019-04-26T12:10:05.898Z,49.00
2019-04-26T12:12:33.733Z,49.71
2019-04-26T12:15:04.047Z,49.88
2019-04-26T12:17:35.154Z,49.52
2019-04-26T12:20:03.898Z,49.67
2019-04-26T12:22:32.783Z,50.91
2019-04-26T12:25:03.373Z,50.63
2019-04-26T12:27:32.332Z,50.19
2019-04-26T12:30:01.345Z,50.37
2019-04-26T12:32:30.297Z,51.15
2019-04-26T12:34:59.218Z,51.22
2019-04-26T12:37:27.959Z,51.78
2019-04-26T12:39:56.800Z,52.09
2019-04-26T12:42:25.739Z,51.93
2019-04-26T12:45:06.650Z,52.82
2019-04-26T12:47:44.967Z,53.32
2019-04-26T12:50:13.835Z,53.18
2019-04-26T12:52:42.643Z,53.07
2019-04-26T12:55:13.901Z,53.00
2019-04-26T12:57:42.455Z,53.70
2019-04-26T13:00:14.177Z,54.81
2019-04-26T13:02:42.999Z,53.53
2019-04-26T13:05:14.476Z,53.96
2019-04-26T13:07:44.147Z,53.43
2019-04-26T13:10:31.410Z,54.93
2019-04-26T13:13:10.526Z,53.98
2019-04-26T13:16:21.662Z,53.84
2019-04-26T13:18:50.575Z,54.78
2019-04-26T13:21:19.384Z,53.70
2019-04-26T13:23:48.419Z,53.92
2019-04-26T13:26:17.271Z,53.98
2019-04-26T13:28:46.122Z,53.89
2019-04-26T13:31:14.921Z,53.65
2019-04-26T13:33:43.844Z,54.07
2019-04-26T13:36:12.764Z,53.64
2019-04-26T13:38:43.619Z,53.35
2019-04-26T13:41:12.363Z,53.87
2019-04-26T13:43:41.314Z,54.42
2019-04-26T13:46:44.604Z,54.39
2019-04-26T13:49:19.272Z,54.72
2019-04-26T13:51:48.232Z,54.68
2019-04-26T13:54:21.073Z,55.26
2019-04-26T13:56:47.517Z,55.25
2019-04-26T13:59:16.477Z,55.51
2019-04-26T14:01:45.343Z,55.80
2019-04-26T14:04:14.201Z,56.16
2019-04-26T14:06:43.048Z,56.21
2019-04-26T14:09:13.616Z,56.47
2019-04-26T14:11:42.333Z,56.49
2019-04-26T14:14:11.373Z,56.37
2019-04-26T14:16:40.287Z,56.48
2019-04-26T14:19:14.892Z,56.46
2019-04-26T14:21:39.846Z,57.60
2019-04-26T14:24:37.036Z,57.53
2019-04-26T14:27:14.986Z,58.32
2019-04-26T14:29:43.631Z,58.07
2019-04-26T14:32:12.517Z,58.71
2019-04-26T14:34:42.900Z,58.26
2019-04-26T14:37:15.405Z,59.77
2019-04-26T14:39:50.018Z,58.38
2019-04-26T14:42:13.545Z,57.54
2019-04-26T14:44:49.209Z,57.96
2019-04-26T14:47:17.464Z,58.91
2019-04-26T14:49:43.695Z,58.71
2019-04-26T14:52:12.532Z,59.25
2019-04-26T14:54:45.718Z,61.01
2019-04-26T14:57:21.075Z,61.78
2019-04-26T14:59:47.079Z,61.88
2019-04-26T15:02:47.404Z,62.13
2019-04-26T15:05:33.322Z,61.45
2019-04-26T15:08:03.964Z,63.19
2019-04-26T15:10:45.897Z,63.17
2019-04-26T15:13:17.412Z,61.35
2019-04-26T15:15:37.332Z,61.93
2019-04-26T15:18:07.304Z,63.06
2019-04-26T15:20:36.200Z,63.68
2019-04-26T15:23:05.133Z,64.32
2019-04-26T15:25:36.667Z,64.47
2019-04-26T15:28:06.761Z,64.97
2019-04-26T15:30:43.332Z,64.18
2019-04-26T15:33:08.865Z,64.50
2019-04-26T15:35:37.568Z,66.13
2019-04-26T15:38:06.568Z,65.88
2019-04-26T15:41:05.465Z,65.45
2019-04-26T15:43:42.939Z,65.62
2019-04-26T15:46:25.772Z,65.86
2019-04-26T15:49:03.091Z,65.93
2019-04-26T15:51:32.627Z,66.64
2019-04-26T15:54:01.506Z,65.97
2019-04-26T15:56:32.425Z,67.40
2019-04-26T15:59:02.561Z,67.40
2019-04-26T16:01:32.529Z,67.89
2019-04-26T16:04:05.739Z,67.29
2019-04-26T16:06:32.345Z,66.52
2019-04-26T16:09:03.570Z,66.60
2019-04-26T16:11:32.488Z,66.72
2019-04-26T16:14:02.133Z,67.04
2019-04-26T16:16:33.005Z,67.02
2019-04-26T16:19:26.654Z,69.36
2019-04-26T16:21:55.717Z,69.81
2019-04-26T16:24:27.840Z,70.23
2019-04-26T16:26:56.251Z,69.99
2019-04-26T16:29:50.515Z,69.94
2019-04-26T16:32:35.369Z,70.94
2019-04-26T16:35:18.235Z,72.47
2019-04-26T16:37:46.634Z,73.22
2019-04-26T16:40:16.428Z,73.66
2019-04-26T16:42:45.342Z,73.49
2019-04-26T16:45:14.254Z,73.82
2019-04-26T16:47:48.657Z,75.10
2019-04-26T16:50:23.236Z,75.93
2019-04-26T16:52:47.864Z,78.60
2019-04-26T16:55:20.883Z,78.29
2019-04-26T16:57:54.999Z,79.54
2019-04-26T17:00:45.469Z,80.08
2019-04-26T17:02:53.067Z,79.84
2019-04-26T17:05:44.019Z,80.02
2019-04-26T17:07:53.928Z,80.54
2019-04-26T17:10:32.974Z,81.72
2019-04-26T17:13:03.152Z,83.41
2019-04-26T17:15:32.626Z,82.48
2019-04-26T17:18:02.653Z,83.23
2019-04-26T17:20:32.210Z,83.95
2019-04-26T17:23:13.290Z,84.21
2019-04-26T17:26:00.197Z,84.26
2019-04-26T17:28:29.225Z,84.90
2019-04-26T17:30:58.678Z,85.69
2019-04-26T17:33:28.163Z,85.86
2019-04-26T17:35:58.029Z,85.86
2019-04-26T17:38:35.270Z,86.18
2019-04-26T17:41:02.453Z,86.84
2019-04-26T17:43:31.190Z,87.43
2019-04-26T17:46:01.127Z,87.19
2019-04-26T17:48:33.674Z,87.69
2019-04-26T17:51:02.666Z,87.71
2019-04-26T17:53:33.702Z,88.37
2019-04-26T17:56:02.083Z,88.68
2019-04-26T17:58:34.358Z,88.91
2019-04-26T18:01:03.741Z,88.67
2019-04-26T18:03:32.774Z,89.36
2019-04-26T18:06:01.905Z,89.74
2019-04-26T18:08:36.784Z,90.22
2019-04-26T18:11:08.538Z,89.95
2019-04-26T18:13:37.302Z,89.73
2019-04-26T18:16:06.198Z,90.08
2019-04-26T18:19:05.055Z,89.75
2019-04-26T18:21:56.091Z,90.00
2019-04-26T18:24:23.484Z,90.71
2019-04-26T18:26:59.252Z,90.84
2019-04-26T18:29:25.198Z,90.46
2019-04-26T18:31:53.678Z,89.85
2019-04-26T18:34:23.189Z,90.19
2019-04-26T18:36:52.087Z,89.96
2019-04-26T18:39:22.745Z,89.28
2019-04-26T18:41:53.856Z,89.74
2019-04-26T18:44:35.912Z,89.76
2019-04-26T18:46:58.607Z,90.04
2019-04-26T18:49:27.392Z,88.70
2019-04-26T18:51:56.223Z,89.51
2019-04-26T18:54:30.104Z,90.10
2019-04-26T18:57:03.388Z,89.74
2019-04-26T18:59:34.028Z,90.02
2019-04-26T19:02:03.943Z,90.11
2019-04-26T19:04:33.613Z,90.15
2019-04-26T19:07:02.605Z,90.40
2019-04-26T19:09:56.716Z,90.14
2019-04-26T19:12:06.221Z,89.89
2019-04-26T19:15:07.523Z,89.56
2019-04-26T19:17:54.103Z,89.90
2019-04-26T19:20:30.241Z,90.17
2019-04-26T19:23:00.779Z,89.84
2019-04-26T19:25:35.623Z,89.93
2019-04-26T19:28:04.300Z,90.19
2019-04-26T19:30:32.958Z,90.02
2019-04-26T19:33:10.092Z,89.93
2019-04-26T19:35:39.408Z,89.86
2019-04-26T19:38:13.324Z,89.93
2019-04-26T19:40:46.397Z,90.16
2019-04-26T19:43:12.446Z,89.97
2019-04-26T19:46:02.142Z,89.71
2019-04-26T19:48:56.548Z,90.00
2019-04-26T19:51:43.641Z,90.15
2019-04-26T19:54:23.125Z,90.35
2019-04-26T19:57:06.175Z,90.24
2019-04-26T19:59:35.816Z,90.18
2019-04-26T20:02:05.354Z,90.22
2019-04-26T20:04:36.213Z,90.33
2019-04-26T20:07:06.380Z,90.39
2019-04-26T20:09:35.326Z,90.28
2019-04-26T20:12:04.373Z,90.22
2019-04-26T20:14:44.580Z,90.21
2019-04-26T20:17:04.955Z,90.20
2019-04-26T20:19:37.581Z,90.23
2019-04-26T20:22:10.627Z,90.17
2019-04-26T20:24:42.959Z,90.17
2019-04-26T20:27:20.588Z,90.12
2019-04-26T20:29:49.511Z,89.98
2019-04-26T20:32:47.856Z,90.05
2019-04-26T20:35:19.663Z,90.09
2019-04-26T20:37:56.335Z,90.13
2019-04-26T20:40:28.742Z,89.96
2019-04-26T20:43:21.734Z,90.02
2019-04-26T20:45:41.969Z,89.98
2019-04-26T20:48:09.905Z,89.99
2019-04-26T20:50:38.872Z,90.07
2019-04-26T20:53:07.918Z,89.88
2019-04-26T20:55:36.927Z,90.09
2019-04-26T20:58:08.594Z,90.27
2019-04-26T21:00:37.696Z,90.22
2019-04-26T21:03:23.891Z,90.05
2019-04-26T21:05:52.711Z,90.03
2019-04-26T21:08:25.817Z,90.05
2019-04-26T21:10:52.094Z,90.04
2019-04-26T21:13:30.740Z,89.84
2019-04-26T21:15:58.764Z,89.84
2019-04-26T21:18:33.539Z,89.86
2019-04-26T21:21:01.585Z,90.04
2019-04-26T21:23:40.055Z,90.08
2019-04-26T21:26:16.701Z,90.04
2019-04-26T21:28:51.986Z,90.00
2019-04-26T21:31:45.548Z,89.88
2019-04-26T21:34:22.725Z,90.04
2019-04-26T21:37:04.084Z,90.06
2019-04-26T21:39:47.512Z,90.11
2019-04-26T21:42:21.046Z,90.22
2019-04-26T21:44:54.874Z,90.24
2019-04-26T21:47:27.666Z,90.24
2019-04-26T21:50:04.242Z,90.02
2019-04-26T21:52:35.231Z,90.10
2019-04-26T21:55:04.621Z,90.32
2019-04-26T21:57:35.054Z,90.07
2019-04-26T22:00:09.141Z,90.32
2019-04-26T22:02:38.085Z,90.52
2019-04-26T22:05:08.023Z,90.50
2019-04-26T22:07:39.443Z,90.32
2019-04-26T22:10:17.911Z,90.00
2019-04-26T22:12:46.614Z,90.18
2019-04-26T22:15:37.511Z,90.13
2019-04-26T22:18:16.463Z,90.13
2019-04-26T22:20:51.022Z,90.01
2019-04-26T22:23:51.720Z,90.28
2019-04-26T22:26:18.447Z,90.22
2019-04-26T22:28:48.301Z,90.17
2019-04-26T22:31:17.117Z,90.10
2019-04-26T22:33:45.959Z,90.04
2019-04-26T22:36:14.762Z,90.02
2019-04-26T22:38:46.417Z,90.04
2019-04-26T22:41:15.394Z,90.04
2019-04-26T22:43:53.987Z,90.17
2019-04-26T22:46:48.817Z,90.43
2019-04-26T22:49:18.040Z,89.91
2019-04-26T22:51:56.184Z,90.25
2019-04-26T22:54:25.107Z,90.36
2019-04-26T22:56:53.961Z,90.24
2019-04-26T22:59:22.988Z,89.97
2019-04-26T23:01:54.840Z,89.84
2019-04-26T23:04:26.509Z,90.01
2019-04-26T23:06:56.456Z,89.82
2019-04-26T23:09:24.899Z,89.71
2019-04-26T23:12:00.260Z,89.78
2019-04-26T23:14:43.898Z,89.77
2019-04-26T23:17:38.754Z,90.46
2019-04-26T23:20:15.234Z,89.87
2019-04-26T23:22:44.043Z,89.95
2019-04-26T23:25:13.666Z,89.92
2019-04-26T23:27:43.567Z,89.91
2019-04-26T23:30:13.368Z,89.61
2019-04-26T23:32:43.436Z,89.29
2019-04-26T23:35:13.717Z,89.54
2019-04-26T23:37:42.656Z,89.33
2019-04-26T23:40:11.519Z,88.90
2019-04-26T23:42:40.377Z,88.34
2019-04-26T23:45:18.307Z,88.51
2019-04-26T23:47:47.166Z,88.53
2019-04-26T23:50:15.991Z,88.61
2019-04-26T23:52:49.200Z,88.54
2019-04-26T23:55:15.387Z,88.24
2019-04-26T23:57:44.118Z,88.82
